sensor_id;sensor_type;location;lat;lon;timestamp;temperature;humidity
54202;DHT22;40108;53.152;5.844;2023-05-29T00:01:40;9.50;85.70
54202;DHT22;40108;53.152;5.844;2023-05-29T00:04:06;9.50;85.90
54202;DHT22;40108;53.152;5.844;2023-05-29T00:06:38;9.40;85.80
54202;DHT22;40108;53.152;5.844;2023-05-29T00:09:17;9.40;85.90
54202;DHT22;40108;53.152;5.844;2023-05-29T00:11:53;9.40;86.00
54202;DHT22;40108;53.152;5.844;2023-05-29T00:15:05;9.40;86.10
54202;DHT22;40108;53.152;5.844;2023-05-29T00:21:33;9.20;86.10
54202;DHT22;40108;53.152;5.844;2023-05-29T00:24:53;9.20;86.00
54202;DHT22;40108;53.152;5.844;2023-05-29T00:40:26;9.10;86.30
54202;DHT22;40108;53.152;5.844;2023-05-29T00:54:47;9.00;86.30
54202;DHT22;40108;53.152;5.844;2023-05-29T01:04:19;8.90;86.40
54202;DHT22;40108;53.152;5.844;2023-05-29T01:06:52;8.90;86.30
54202;DHT22;40108;53.152;5.844;2023-05-29T01:10:13;8.90;86.40
54202;DHT22;40108;53.152;5.844;2023-05-29T01:16:42;8.90;86.50
54202;DHT22;40108;53.152;5.844;2023-05-29T01:32:34;8.90;86.60
54202;DHT22;40108;53.152;5.844;2023-05-29T01:38:44;8.90;86.40
54202;DHT22;40108;53.152;5.844;2023-05-29T01:44:53;8.90;86.40
54202;DHT22;40108;53.152;5.844;2023-05-29T01:47:21;9.00;86.30
54202;DHT22;40108;53.152;5.844;2023-05-29T01:53:35;9.00;86.10
54202;DHT22;40108;53.152;5.844;2023-05-29T01:56:12;8.90;86.10
54202;DHT22;40108;53.152;5.844;2023-05-29T01:58:43;8.90;86.10
54202;DHT22;40108;53.152;5.844;2023-05-29T02:01:12;8.90;86.00
54202;DHT22;40108;53.152;5.844;2023-05-29T02:04:17;8.90;86.10
54202;DHT22;40108;53.152;5.844;2023-05-29T02:06:47;8.90;86.00
54202;DHT22;40108;53.152;5.844;2023-05-29T02:09:29;8.90;86.10
54202;DHT22;40108;53.152;5.844;2023-05-29T02:12:18;8.90;86.20
54202;DHT22;40108;53.152;5.844;2023-05-29T02:15:07;8.90;86.20
54202;DHT22;40108;53.152;5.844;2023-05-29T02:18:15;9.00;86.20
54202;DHT22;40108;53.152;5.844;2023-05-29T02:21:00;9.10;86.30
54202;DHT22;40108;53.152;5.844;2023-05-29T02:23:42;9.10;86.20
54202;DHT22;40108;53.152;5.844;2023-05-29T02:26:52;9.20;86.10
54202;DHT22;40108;53.152;5.844;2023-05-29T02:29:27;9.20;85.90
54202;DHT22;40108;53.152;5.844;2023-05-29T02:32:15;9.30;85.80
54202;DHT22;40108;53.152;5.844;2023-05-29T02:35:02;9.40;85.60
54202;DHT22;40108;53.152;5.844;2023-05-29T02:37:33;9.40;85.60
54202;DHT22;40108;53.152;5.844;2023-05-29T02:40:14;9.40;85.30
54202;DHT22;40108;53.152;5.844;2023-05-29T02:43:21;9.50;84.90
54202;DHT22;40108;53.152;5.844;2023-05-29T02:46:04;9.60;84.90
54202;DHT22;40108;53.152;5.844;2023-05-29T02:48:52;9.60;84.80
54202;DHT22;40108;53.152;5.844;2023-05-29T02:54:15;9.60;84.70
54202;DHT22;40108;53.152;5.844;2023-05-29T02:56:56;9.50;84.70
54202;DHT22;40108;53.152;5.844;2023-05-29T02:59:35;9.50;84.60
54202;DHT22;40108;53.152;5.844;2023-05-29T03:02:25;9.50;84.60
54202;DHT22;40108;53.152;5.844;2023-05-29T03:04:58;9.40;84.50
54202;DHT22;40108;53.152;5.844;2023-05-29T03:08:28;9.40;84.50
54202;DHT22;40108;53.152;5.844;2023-05-29T03:11:13;9.40;84.20
54202;DHT22;40108;53.152;5.844;2023-05-29T03:14:05;9.40;83.90
54202;DHT22;40108;53.152;5.844;2023-05-29T03:16:37;9.50;83.80
54202;DHT22;40108;53.152;5.844;2023-05-29T03:19:16;9.50;83.70
54202;DHT22;40108;53.152;5.844;2023-05-29T03:24:52;9.60;84.10
54202;DHT22;40108;53.152;5.844;2023-05-29T03:34:21;9.70;84.00
54202;DHT22;40108;53.152;5.844;2023-05-29T03:36:47;9.70;83.70
54202;DHT22;40108;53.152;5.844;2023-05-29T03:39:20;9.70;83.70
54202;DHT22;40108;53.152;5.844;2023-05-29T03:42:06;9.70;83.70
54202;DHT22;40108;53.152;5.844;2023-05-29T03:47:55;9.80;83.50
54202;DHT22;40108;53.152;5.844;2023-05-29T03:50:23;9.90;83.70
54202;DHT22;40108;53.152;5.844;2023-05-29T03:52:53;9.90;83.70
54202;DHT22;40108;53.152;5.844;2023-05-29T03:55:26;9.90;83.60
54202;DHT22;40108;53.152;5.844;2023-05-29T03:58:01;10.00;83.70
54202;DHT22;40108;53.152;5.844;2023-05-29T04:00:32;10.00;83.80
54202;DHT22;40108;53.152;5.844;2023-05-29T04:03:06;10.10;83.90
54202;DHT22;40108;53.152;5.844;2023-05-29T04:05:52;10.10;83.90
54202;DHT22;40108;53.152;5.844;2023-05-29T04:11:44;10.10;83.20
54202;DHT22;40108;53.152;5.844;2023-05-29T04:14:21;10.20;83.10
54202;DHT22;40108;53.152;5.844;2023-05-29T04:17:12;10.20;83.00
54202;DHT22;40108;53.152;5.844;2023-05-29T04:19:43;10.20;82.80
54202;DHT22;40108;53.152;5.844;2023-05-29T04:22:16;10.30;82.70
54202;DHT22;40108;53.152;5.844;2023-05-29T04:25:06;10.30;82.60
54202;DHT22;40108;53.152;5.844;2023-05-29T04:27:53;10.30;82.50
54202;DHT22;40108;53.152;5.844;2023-05-29T04:30:22;10.30;82.20
54202;DHT22;40108;53.152;5.844;2023-05-29T04:35:59;10.30;81.60
54202;DHT22;40108;53.152;5.844;2023-05-29T04:38:54;10.40;81.30
54202;DHT22;40108;53.152;5.844;2023-05-29T04:41:22;10.40;80.80
54202;DHT22;40108;53.152;5.844;2023-05-29T04:43:58;10.40;80.70
54202;DHT22;40108;53.152;5.844;2023-05-29T04:49:39;10.50;80.00
54202;DHT22;40108;53.152;5.844;2023-05-29T04:52:24;10.60;79.80
54202;DHT22;40108;53.152;5.844;2023-05-29T04:55:00;10.60;79.40
54202;DHT22;40108;53.152;5.844;2023-05-29T04:57:32;10.60;79.40
54202;DHT22;40108;53.152;5.844;2023-05-29T05:00:05;10.60;79.10
54202;DHT22;40108;53.152;5.844;2023-05-29T05:02:49;10.60;78.90
54202;DHT22;40108;53.152;5.844;2023-05-29T05:05:15;10.60;79.00
54202;DHT22;40108;53.152;5.844;2023-05-29T05:07:48;10.60;78.70
54202;DHT22;40108;53.152;5.844;2023-05-29T05:10:38;10.60;78.70
54202;DHT22;40108;53.152;5.844;2023-05-29T05:13:08;10.60;78.50
54202;DHT22;40108;53.152;5.844;2023-05-29T05:15:44;10.60;78.90
54202;DHT22;40108;53.152;5.844;2023-05-29T05:18:17;10.60;78.70
54202;DHT22;40108;53.152;5.844;2023-05-29T05:20:45;10.70;79.00
54202;DHT22;40108;53.152;5.844;2023-05-29T05:23:22;10.70;78.90
54202;DHT22;40108;53.152;5.844;2023-05-29T05:29:04;10.80;78.60
54202;DHT22;40108;53.152;5.844;2023-05-29T05:31:48;10.90;78.20
54202;DHT22;40108;53.152;5.844;2023-05-29T05:34:22;10.90;78.10
54202;DHT22;40108;53.152;5.844;2023-05-29T05:37:08;10.90;78.30
54202;DHT22;40108;53.152;5.844;2023-05-29T05:39:44;10.90;78.60
54202;DHT22;40108;53.152;5.844;2023-05-29T05:42:15;10.90;78.00
54202;DHT22;40108;53.152;5.844;2023-05-29T05:44:58;11.00;77.50
54202;DHT22;40108;53.152;5.844;2023-05-29T05:47:29;11.00;77.00
54202;DHT22;40108;53.152;5.844;2023-05-29T05:50:49;11.00;77.40
54202;DHT22;40108;53.152;5.844;2023-05-29T05:53:47;11.10;77.10
54202;DHT22;40108;53.152;5.844;2023-05-29T05:59:33;11.20;76.90
54202;DHT22;40108;53.152;5.844;2023-05-29T06:04:50;11.30;76.20
54202;DHT22;40108;53.152;5.844;2023-05-29T06:07:37;11.30;75.30
54202;DHT22;40108;53.152;5.844;2023-05-29T06:11:00;11.40;75.30
54202;DHT22;40108;53.152;5.844;2023-05-29T06:21:29;11.50;74.90
54202;DHT22;40108;53.152;5.844;2023-05-29T06:24:21;11.60;75.00
54202;DHT22;40108;53.152;5.844;2023-05-29T06:26:57;11.60;74.50
54202;DHT22;40108;53.152;5.844;2023-05-29T06:29:51;11.60;75.10
54202;DHT22;40108;53.152;5.844;2023-05-29T06:32:19;11.60;74.40
54202;DHT22;40108;53.152;5.844;2023-05-29T06:34:59;11.70;74.40
54202;DHT22;40108;53.152;5.844;2023-05-29T06:37:33;11.80;73.80
54202;DHT22;40108;53.152;5.844;2023-05-29T06:40:04;12.00;73.50
54202;DHT22;40108;53.152;5.844;2023-05-29T06:42:39;12.10;72.90
54202;DHT22;40108;53.152;5.844;2023-05-29T06:45:11;12.40;72.90
54202;DHT22;40108;53.152;5.844;2023-05-29T06:47:52;12.40;71.40
54202;DHT22;40108;53.152;5.844;2023-05-29T06:50:23;12.50;70.80
54202;DHT22;40108;53.152;5.844;2023-05-29T06:52:51;12.60;71.70
54202;DHT22;40108;53.152;5.844;2023-05-29T06:55:30;12.60;71.20
54202;DHT22;40108;53.152;5.844;2023-05-29T06:58:19;12.60;71.10
54202;DHT22;40108;53.152;5.844;2023-05-29T07:01:07;12.70;70.80
54202;DHT22;40108;53.152;5.844;2023-05-29T07:03:53;12.80;70.90
54202;DHT22;40108;53.152;5.844;2023-05-29T07:06:22;12.90;70.10
54202;DHT22;40108;53.152;5.844;2023-05-29T07:09:13;13.10;70.50
54202;DHT22;40108;53.152;5.844;2023-05-29T07:12:08;13.10;70.60
54202;DHT22;40108;53.152;5.844;2023-05-29T07:14:44;13.10;70.40
54202;DHT22;40108;53.152;5.844;2023-05-29T07:17:21;13.20;69.60
54202;DHT22;40108;53.152;5.844;2023-05-29T07:20:17;13.20;70.30
54202;DHT22;40108;53.152;5.844;2023-05-29T07:22:50;13.10;69.00
54202;DHT22;40108;53.152;5.844;2023-05-29T07:25:27;13.10;69.50
54202;DHT22;40108;53.152;5.844;2023-05-29T07:30:55;12.80;68.90
54202;DHT22;40108;53.152;5.844;2023-05-29T07:33:49;12.70;69.10
54202;DHT22;40108;53.152;5.844;2023-05-29T07:36:17;12.80;69.20
54202;DHT22;40108;53.152;5.844;2023-05-29T07:39:01;12.70;69.90
54202;DHT22;40108;53.152;5.844;2023-05-29T07:42:05;12.70;70.70
54202;DHT22;40108;53.152;5.844;2023-05-29T07:44:52;12.80;70.40
54202;DHT22;40108;53.152;5.844;2023-05-29T07:47:20;12.90;70.40
54202;DHT22;40108;53.152;5.844;2023-05-29T07:50:07;12.90;70.30
54202;DHT22;40108;53.152;5.844;2023-05-29T07:55:48;13.10;70.50
54202;DHT22;40108;53.152;5.844;2023-05-29T07:58:46;13.50;70.90
54202;DHT22;40108;53.152;5.844;2023-05-29T08:01:14;13.80;68.60
54202;DHT22;40108;53.152;5.844;2023-05-29T08:03:53;14.10;68.90
54202;DHT22;40108;53.152;5.844;2023-05-29T08:06:23;14.20;67.40
54202;DHT22;40108;53.152;5.844;2023-05-29T08:09:13;14.20;65.80
54202;DHT22;40108;53.152;5.844;2023-05-29T08:12:01;14.10;66.40
54202;DHT22;40108;53.152;5.844;2023-05-29T08:17:34;14.20;66.10
54202;DHT22;40108;53.152;5.844;2023-05-29T08:23:10;14.60;65.30
54202;DHT22;40108;53.152;5.844;2023-05-29T08:26:00;14.60;63.70
54202;DHT22;40108;53.152;5.844;2023-05-29T08:28:31;14.60;63.80
54202;DHT22;40108;53.152;5.844;2023-05-29T08:31:07;14.40;64.00
54202;DHT22;40108;53.152;5.844;2023-05-29T08:33:44;14.40;65.00
54202;DHT22;40108;53.152;5.844;2023-05-29T08:36:18;14.50;64.20
54202;DHT22;40108;53.152;5.844;2023-05-29T08:38:50;14.60;64.00
54202;DHT22;40108;53.152;5.844;2023-05-29T08:44:05;14.70;64.70
54202;DHT22;40108;53.152;5.844;2023-05-29T08:46:46;14.70;65.60
54202;DHT22;40108;53.152;5.844;2023-05-29T08:49:26;14.70;64.50
54202;DHT22;40108;53.152;5.844;2023-05-29T08:52:05;14.70;64.00
54202;DHT22;40108;53.152;5.844;2023-05-29T08:54:49;14.60;64.40
54202;DHT22;40108;53.152;5.844;2023-05-29T08:57:28;14.60;65.20
54202;DHT22;40108;53.152;5.844;2023-05-29T09:00:18;14.60;65.50
54202;DHT22;40108;53.152;5.844;2023-05-29T09:03:02;14.40;64.00
54202;DHT22;40108;53.152;5.844;2023-05-29T09:06:00;14.40;64.90
54202;DHT22;40108;53.152;5.844;2023-05-29T09:08:37;14.30;64.90
54202;DHT22;40108;53.152;5.844;2023-05-29T09:11:08;14.20;65.70
54202;DHT22;40108;53.152;5.844;2023-05-29T09:13:49;14.10;66.70
54202;DHT22;40108;53.152;5.844;2023-05-29T09:16:41;14.10;66.60
54202;DHT22;40108;53.152;5.844;2023-05-29T09:19:28;14.00;67.50
54202;DHT22;40108;53.152;5.844;2023-05-29T09:22:26;13.90;66.10
54202;DHT22;40108;53.152;5.844;2023-05-29T09:24:58;13.70;66.70
54202;DHT22;40108;53.152;5.844;2023-05-29T09:27:34;13.70;66.80
54202;DHT22;40108;53.152;5.844;2023-05-29T09:30:09;13.70;66.90
54202;DHT22;40108;53.152;5.844;2023-05-29T09:33:07;13.70;67.10
54202;DHT22;40108;53.152;5.844;2023-05-29T09:35:43;13.80;68.50
54202;DHT22;40108;53.152;5.844;2023-05-29T09:38:19;13.80;68.40
54202;DHT22;40108;53.152;5.844;2023-05-29T09:40:50;13.90;67.50
54202;DHT22;40108;53.152;5.844;2023-05-29T09:43:33;13.90;66.90
54202;DHT22;40108;53.152;5.844;2023-05-29T09:46:15;13.80;66.40
54202;DHT22;40108;53.152;5.844;2023-05-29T09:48:46;13.90;66.60
54202;DHT22;40108;53.152;5.844;2023-05-29T09:51:25;13.90;68.10
54202;DHT22;40108;53.152;5.844;2023-05-29T09:53:58;14.00;67.80
54202;DHT22;40108;53.152;5.844;2023-05-29T09:56:29;14.00;67.50
54202;DHT22;40108;53.152;5.844;2023-05-29T09:58:56;14.10;67.50
54202;DHT22;40108;53.152;5.844;2023-05-29T10:01:55;14.10;66.40
54202;DHT22;40108;53.152;5.844;2023-05-29T10:04:37;14.20;67.90
54202;DHT22;40108;53.152;5.844;2023-05-29T10:07:29;14.30;67.40
54202;DHT22;40108;53.152;5.844;2023-05-29T10:09:59;14.40;66.00
54202;DHT22;40108;53.152;5.844;2023-05-29T10:12:29;14.50;66.20
54202;DHT22;40108;53.152;5.844;2023-05-29T10:14:57;14.50;66.20
54202;DHT22;40108;53.152;5.844;2023-05-29T10:18:12;14.60;66.10
54202;DHT22;40108;53.152;5.844;2023-05-29T10:20:45;14.60;65.90
54202;DHT22;40108;53.152;5.844;2023-05-29T10:23:31;14.70;66.30
54202;DHT22;40108;53.152;5.844;2023-05-29T10:29:17;15.00;64.40
54202;DHT22;40108;53.152;5.844;2023-05-29T10:32:05;15.10;64.30
54202;DHT22;40108;53.152;5.844;2023-05-29T10:43:42;15.60;63.40
54202;DHT22;40108;53.152;5.844;2023-05-29T10:46:18;15.60;63.50
54202;DHT22;40108;53.152;5.844;2023-05-29T10:48:59;15.60;63.90
54202;DHT22;40108;53.152;5.844;2023-05-29T10:51:50;15.60;61.30
54202;DHT22;40108;53.152;5.844;2023-05-29T10:54:26;15.70;61.90
54202;DHT22;40108;53.152;5.844;2023-05-29T10:57:15;15.80;60.70
54202;DHT22;40108;53.152;5.844;2023-05-29T10:59:47;15.80;60.40
54202;DHT22;40108;53.152;5.844;2023-05-29T11:02:30;15.80;61.60
54202;DHT22;40108;53.152;5.844;2023-05-29T11:05:23;15.90;60.10
54202;DHT22;40108;53.152;5.844;2023-05-29T11:08:14;16.10;61.30
54202;DHT22;40108;53.152;5.844;2023-05-29T11:11:05;16.20;59.20
54202;DHT22;40108;53.152;5.844;2023-05-29T11:13:37;16.20;58.30
54202;DHT22;40108;53.152;5.844;2023-05-29T11:18:51;16.00;60.30
54202;DHT22;40108;53.152;5.844;2023-05-29T11:22:02;15.70;61.30
54202;DHT22;40108;53.152;5.844;2023-05-29T11:24:44;15.90;62.80
54202;DHT22;40108;53.152;5.844;2023-05-29T11:30:04;16.10;62.70
54202;DHT22;40108;53.152;5.844;2023-05-29T11:32:34;16.10;62.00
54202;DHT22;40108;53.152;5.844;2023-05-29T11:35:10;16.10;60.20
54202;DHT22;40108;53.152;5.844;2023-05-29T11:37:46;16.00;59.70
54202;DHT22;40108;53.152;5.844;2023-05-29T11:40:23;16.10;61.20
54202;DHT22;40108;53.152;5.844;2023-05-29T11:42:53;16.20;59.70
54202;DHT22;40108;53.152;5.844;2023-05-29T11:45:23;16.20;59.30
54202;DHT22;40108;53.152;5.844;2023-05-29T11:48:03;16.20;60.00
54202;DHT22;40108;53.152;5.844;2023-05-29T11:50:38;16.30;60.80
54202;DHT22;40108;53.152;5.844;2023-05-29T11:53:12;16.40;60.30
54202;DHT22;40108;53.152;5.844;2023-05-29T11:55:46;16.50;60.30
54202;DHT22;40108;53.152;5.844;2023-05-29T11:58:17;16.50;57.90
54202;DHT22;40108;53.152;5.844;2023-05-29T12:00:47;16.60;59.20
54202;DHT22;40108;53.152;5.844;2023-05-29T12:03:22;16.80;58.90
54202;DHT22;40108;53.152;5.844;2023-05-29T12:08:59;16.90;57.40
54202;DHT22;40108;53.152;5.844;2023-05-29T12:11:49;16.80;56.40
54202;DHT22;40108;53.152;5.844;2023-05-29T12:14:17;16.80;57.80
54202;DHT22;40108;53.152;5.844;2023-05-29T12:16:46;16.60;57.90
54202;DHT22;40108;53.152;5.844;2023-05-29T12:19:17;16.60;59.80
54202;DHT22;40108;53.152;5.844;2023-05-29T12:21:48;16.60;59.80
54202;DHT22;40108;53.152;5.844;2023-05-29T12:27:10;16.40;57.60
54202;DHT22;40108;53.152;5.844;2023-05-29T12:29:49;16.30;58.90
54202;DHT22;40108;53.152;5.844;2023-05-29T12:32:21;16.20;59.80
54202;DHT22;40108;53.152;5.844;2023-05-29T12:35:10;16.20;59.50
54202;DHT22;40108;53.152;5.844;2023-05-29T12:38:04;16.10;60.20
54202;DHT22;40108;53.152;5.844;2023-05-29T12:40:52;16.10;59.60
54202;DHT22;40108;53.152;5.844;2023-05-29T12:43:41;16.00;60.00
54202;DHT22;40108;53.152;5.844;2023-05-29T12:46:15;16.10;60.10
54202;DHT22;40108;53.152;5.844;2023-05-29T12:48:49;16.10;60.10
54202;DHT22;40108;53.152;5.844;2023-05-29T12:51:22;16.10;60.40
54202;DHT22;40108;53.152;5.844;2023-05-29T12:53:58;16.10;60.20
54202;DHT22;40108;53.152;5.844;2023-05-29T12:56:47;15.80;60.30
54202;DHT22;40108;53.152;5.844;2023-05-29T12:59:25;15.70;61.40
54202;DHT22;40108;53.152;5.844;2023-05-29T13:01:59;15.60;61.40
54202;DHT22;40108;53.152;5.844;2023-05-29T13:04:38;15.50;62.20
54202;DHT22;40108;53.152;5.844;2023-05-29T13:07:22;15.50;62.30
54202;DHT22;40108;53.152;5.844;2023-05-29T13:09:58;15.30;62.90
54202;DHT22;40108;53.152;5.844;2023-05-29T13:12:34;15.20;63.00
54202;DHT22;40108;53.152;5.844;2023-05-29T13:15:13;15.10;63.00
54202;DHT22;40108;53.152;5.844;2023-05-29T13:17:44;15.10;63.40
54202;DHT22;40108;53.152;5.844;2023-05-29T13:20:13;15.00;64.30
54202;DHT22;40108;53.152;5.844;2023-05-29T13:22:48;14.90;64.80
54202;DHT22;40108;53.152;5.844;2023-05-29T13:25:47;15.00;65.20
54202;DHT22;40108;53.152;5.844;2023-05-29T13:28:33;15.10;64.90
54202;DHT22;40108;53.152;5.844;2023-05-29T13:31:19;15.10;64.60
54202;DHT22;40108;53.152;5.844;2023-05-29T13:33:56;15.10;63.70
54202;DHT22;40108;53.152;5.844;2023-05-29T13:36:35;15.10;63.30
54202;DHT22;40108;53.152;5.844;2023-05-29T13:39:07;15.10;64.40
54202;DHT22;40108;53.152;5.844;2023-05-29T13:45:42;15.10;63.70
54202;DHT22;40108;53.152;5.844;2023-05-29T13:48:20;14.90;62.30
54202;DHT22;40108;53.152;5.844;2023-05-29T13:51:04;14.90;64.70
54202;DHT22;40108;53.152;5.844;2023-05-29T13:53:42;14.90;64.30
54202;DHT22;40108;53.152;5.844;2023-05-29T13:56:43;15.00;63.80
54202;DHT22;40108;53.152;5.844;2023-05-29T13:59:43;15.00;61.30
54202;DHT22;40108;53.152;5.844;2023-05-29T14:02:24;14.90;61.80
54202;DHT22;40108;53.152;5.844;2023-05-29T14:05:08;14.90;62.10
54202;DHT22;40108;53.152;5.844;2023-05-29T14:07:42;15.00;61.00
54202;DHT22;40108;53.152;5.844;2023-05-29T14:10:22;14.90;61.70
54202;DHT22;40108;53.152;5.844;2023-05-29T14:13:01;14.80;64.20
54202;DHT22;40108;53.152;5.844;2023-05-29T14:15:47;14.80;63.00
54202;DHT22;40108;53.152;5.844;2023-05-29T14:18:16;14.90;64.50
54202;DHT22;40108;53.152;5.844;2023-05-29T14:20:41;14.80;59.70
54202;DHT22;40108;53.152;5.844;2023-05-29T14:23:35;14.80;60.40
54202;DHT22;40108;53.152;5.844;2023-05-29T14:26:12;14.70;60.90
54202;DHT22;40108;53.152;5.844;2023-05-29T14:29:01;14.70;62.50
54202;DHT22;40108;53.152;5.844;2023-05-29T14:31:44;14.70;59.80
54202;DHT22;40108;53.152;5.844;2023-05-29T14:34:50;14.60;59.40
54202;DHT22;40108;53.152;5.844;2023-05-29T14:37:22;14.60;57.70
54202;DHT22;40108;53.152;5.844;2023-05-29T14:40:06;14.60;59.60
54202;DHT22;40108;53.152;5.844;2023-05-29T14:42:57;14.60;60.00
54202;DHT22;40108;53.152;5.844;2023-05-29T14:45:29;14.50;59.30
54202;DHT22;40108;53.152;5.844;2023-05-29T14:51:05;14.50;60.30
54202;DHT22;40108;53.152;5.844;2023-05-29T14:53:42;14.40;58.80
54202;DHT22;40108;53.152;5.844;2023-05-29T14:56:15;14.40;60.70
54202;DHT22;40108;53.152;5.844;2023-05-29T14:58:44;14.40;62.70
54202;DHT22;40108;53.152;5.844;2023-05-29T15:01:30;14.40;63.30
54202;DHT22;40108;53.152;5.844;2023-05-29T15:04:06;14.40;64.10
54202;DHT22;40108;53.152;5.844;2023-05-29T15:06:39;14.40;62.80
54202;DHT22;40108;53.152;5.844;2023-05-29T15:09:13;14.30;60.70
54202;DHT22;40108;53.152;5.844;2023-05-29T15:12:19;14.30;60.00
54202;DHT22;40108;53.152;5.844;2023-05-29T15:14:50;14.30;61.90
54202;DHT22;40108;53.152;5.844;2023-05-29T15:17:33;14.20;63.90
54202;DHT22;40108;53.152;5.844;2023-05-29T15:20:39;14.20;64.40
54202;DHT22;40108;53.152;5.844;2023-05-29T15:23:28;14.20;64.70
54202;DHT22;40108;53.152;5.844;2023-05-29T15:26:13;14.20;63.60
54202;DHT22;40108;53.152;5.844;2023-05-29T15:28:51;14.10;62.90
54202;DHT22;40108;53.152;5.844;2023-05-29T15:31:26;14.10;64.90
54202;DHT22;40108;53.152;5.844;2023-05-29T15:33:54;14.10;64.70
54202;DHT22;40108;53.152;5.844;2023-05-29T15:36:22;14.10;65.20
54202;DHT22;40108;53.152;5.844;2023-05-29T15:38:57;14.10;64.00
54202;DHT22;40108;53.152;5.844;2023-05-29T15:41:36;14.00;63.30
54202;DHT22;40108;53.152;5.844;2023-05-29T15:44:14;14.00;66.70
54202;DHT22;40108;53.152;5.844;2023-05-29T15:46:52;14.00;66.00
54202;DHT22;40108;53.152;5.844;2023-05-29T15:49:22;13.90;67.20
54202;DHT22;40108;53.152;5.844;2023-05-29T15:51:53;13.90;65.90
54202;DHT22;40108;53.152;5.844;2023-05-29T15:54:26;13.90;64.90
54202;DHT22;40108;53.152;5.844;2023-05-29T15:57:19;14.00;66.10
54202;DHT22;40108;53.152;5.844;2023-05-29T16:00:10;14.00;65.50
54202;DHT22;40108;53.152;5.844;2023-05-29T16:02:49;13.90;66.30
54202;DHT22;40108;53.152;5.844;2023-05-29T16:05:22;13.90;67.10
54202;DHT22;40108;53.152;5.844;2023-05-29T16:08:02;13.90;67.80
54202;DHT22;40108;53.152;5.844;2023-05-29T16:10:55;13.90;68.20
54202;DHT22;40108;53.152;5.844;2023-05-29T16:16:22;13.80;66.20
54202;DHT22;40108;53.152;5.844;2023-05-29T16:19:42;13.80;67.40
54202;DHT22;40108;53.152;5.844;2023-05-29T16:22:32;13.70;67.50
54202;DHT22;40108;53.152;5.844;2023-05-29T16:28:04;13.80;66.70
54202;DHT22;40108;53.152;5.844;2023-05-29T16:30:56;13.80;67.40
54202;DHT22;40108;53.152;5.844;2023-05-29T16:33:32;13.80;67.70
54202;DHT22;40108;53.152;5.844;2023-05-29T16:36:08;13.70;68.20
54202;DHT22;40108;53.152;5.844;2023-05-29T16:41:55;13.70;68.40
54202;DHT22;40108;53.152;5.844;2023-05-29T16:44:29;13.70;69.10
54202;DHT22;40108;53.152;5.844;2023-05-29T16:47:23;13.60;69.70
54202;DHT22;40108;53.152;5.844;2023-05-29T16:50:14;13.60;69.40
54202;DHT22;40108;53.152;5.844;2023-05-29T16:52:45;13.60;69.50
54202;DHT22;40108;53.152;5.844;2023-05-29T16:55:42;13.60;69.20
54202;DHT22;40108;53.152;5.844;2023-05-29T16:58:33;13.60;69.50
54202;DHT22;40108;53.152;5.844;2023-05-29T17:01:01;13.60;69.90
54202;DHT22;40108;53.152;5.844;2023-05-29T17:03:38;13.50;69.50
54202;DHT22;40108;53.152;5.844;2023-05-29T17:06:19;13.50;69.60
54202;DHT22;40108;53.152;5.844;2023-05-29T17:08:54;13.40;69.90
54202;DHT22;40108;53.152;5.844;2023-05-29T17:11:44;13.40;70.10
54202;DHT22;40108;53.152;5.844;2023-05-29T17:14:29;13.40;71.20
54202;DHT22;40108;53.152;5.844;2023-05-29T17:20:24;13.30;71.00
54202;DHT22;40108;53.152;5.844;2023-05-29T17:23:19;13.30;71.00
54202;DHT22;40108;53.152;5.844;2023-05-29T17:26:00;13.20;70.80
54202;DHT22;40108;53.152;5.844;2023-05-29T17:28:44;13.20;70.80
54202;DHT22;40108;53.152;5.844;2023-05-29T17:34:41;13.10;71.50
54202;DHT22;40108;53.152;5.844;2023-05-29T17:37:47;13.00;71.90
54202;DHT22;40108;53.152;5.844;2023-05-29T17:40:31;12.90;71.50
54202;DHT22;40108;53.152;5.844;2023-05-29T17:43:09;12.90;70.90
54202;DHT22;40108;53.152;5.844;2023-05-29T17:45:46;12.90;71.50
54202;DHT22;40108;53.152;5.844;2023-05-29T17:48:18;12.90;72.00
54202;DHT22;40108;53.152;5.844;2023-05-29T17:51:05;12.90;71.80
54202;DHT22;40108;53.152;5.844;2023-05-29T17:53:38;12.90;71.70
54202;DHT22;40108;53.152;5.844;2023-05-29T17:56:21;12.90;71.90
54202;DHT22;40108;53.152;5.844;2023-05-29T17:59:06;12.90;71.90
54202;DHT22;40108;53.152;5.844;2023-05-29T18:01:41;12.90;71.40
54202;DHT22;40108;53.152;5.844;2023-05-29T18:04:27;12.80;71.70
54202;DHT22;40108;53.152;5.844;2023-05-29T18:07:11;12.70;72.80
54202;DHT22;40108;53.152;5.844;2023-05-29T18:10:13;12.70;72.80
54202;DHT22;40108;53.152;5.844;2023-05-29T18:13:03;12.60;73.20
54202;DHT22;40108;53.152;5.844;2023-05-29T18:15:45;12.60;73.10
54202;DHT22;40108;53.152;5.844;2023-05-29T18:18:16;12.60;73.60
54202;DHT22;40108;53.152;5.844;2023-05-29T18:20:56;12.50;73.60
54202;DHT22;40108;53.152;5.844;2023-05-29T18:23:57;12.50;73.30
54202;DHT22;40108;53.152;5.844;2023-05-29T18:26:29;12.40;73.30
54202;DHT22;40108;53.152;5.844;2023-05-29T18:29:23;12.40;73.60
54202;DHT22;40108;53.152;5.844;2023-05-29T18:31:54;12.40;73.90
54202;DHT22;40108;53.152;5.844;2023-05-29T18:34:30;12.30;74.00
54202;DHT22;40108;53.152;5.844;2023-05-29T18:37:17;12.20;74.10
54202;DHT22;40108;53.152;5.844;2023-05-29T18:43:31;12.20;75.00
54202;DHT22;40108;53.152;5.844;2023-05-29T18:46:05;12.10;75.40
54202;DHT22;40108;53.152;5.844;2023-05-29T18:48:38;12.10;75.10
54202;DHT22;40108;53.152;5.844;2023-05-29T18:51:09;12.00;74.80
54202;DHT22;40108;53.152;5.844;2023-05-29T18:53:41;12.00;74.80
54202;DHT22;40108;53.152;5.844;2023-05-29T18:56:20;11.90;75.40
54202;DHT22;40108;53.152;5.844;2023-05-29T18:59:08;11.80;75.20
54202;DHT22;40108;53.152;5.844;2023-05-29T19:01:43;11.80;75.80
54202;DHT22;40108;53.152;5.844;2023-05-29T19:04:11;11.80;75.90
54202;DHT22;40108;53.152;5.844;2023-05-29T19:06:57;11.70;76.10
54202;DHT22;40108;53.152;5.844;2023-05-29T19:09:34;11.70;76.50
54202;DHT22;40108;53.152;5.844;2023-05-29T19:12:06;11.60;76.80
54202;DHT22;40108;53.152;5.844;2023-05-29T19:21:00;11.50;77.50
54202;DHT22;40108;53.152;5.844;2023-05-29T19:23:59;11.50;77.60
54202;DHT22;40108;53.152;5.844;2023-05-29T19:26:55;11.40;77.80
54202;DHT22;40108;53.152;5.844;2023-05-29T19:29:26;11.40;77.70
54202;DHT22;40108;53.152;5.844;2023-05-29T19:31:55;11.30;77.80
54202;DHT22;40108;53.152;5.844;2023-05-29T19:35:01;11.30;77.70
54202;DHT22;40108;53.152;5.844;2023-05-29T19:37:40;11.20;77.90
54202;DHT22;40108;53.152;5.844;2023-05-29T19:40:12;11.20;78.10
54202;DHT22;40108;53.152;5.844;2023-05-29T19:42:56;11.20;78.10
54202;DHT22;40108;53.152;5.844;2023-05-29T19:45:34;11.20;78.30
54202;DHT22;40108;53.152;5.844;2023-05-29T19:48:26;11.20;78.60
54202;DHT22;40108;53.152;5.844;2023-05-29T19:51:15;11.20;78.60
54202;DHT22;40108;53.152;5.844;2023-05-29T19:54:00;11.20;78.60